createdAt,value
2023-05-13T00:01:55.226Z,7.82
2023-05-13T00:04:27.426Z,7.77
2023-05-13T00:07:01.667Z,7.73
2023-05-13T00:09:34.518Z,7.70
2023-05-13T00:12:08.233Z,7.75
2023-05-13T00:14:41.126Z,7.79
2023-05-13T00:17:13.428Z,7.86
2023-05-13T00:19:45.800Z,7.93
2023-05-13T00:22:20.747Z,7.98
2023-05-13T00:24:53.031Z,8.02
2023-05-13T00:27:27.480Z,8.06
2023-05-13T00:30:01.114Z,8.07
2023-05-13T00:32:33.424Z,8.06
2023-05-13T00:35:13.204Z,7.99
2023-05-13T00:37:45.672Z,7.92
2023-05-13T00:40:23.435Z,7.88
2023-05-13T00:42:57.177Z,7.88
2023-05-13T00:45:29.922Z,7.84
2023-05-13T00:48:03.845Z,7.85
2023-05-13T00:50:38.528Z,7.83
2023-05-13T00:53:11.910Z,7.79
2023-05-13T00:55:46.332Z,7.77
2023-05-13T00:58:18.839Z,7.76
2023-05-13T01:00:58.859Z,7.74
2023-05-13T01:03:41.540Z,7.63
2023-05-13T01:06:18.638Z,7.55
2023-05-13T01:08:58.505Z,7.51
2023-05-13T01:11:36.660Z,7.49
2023-05-13T01:14:14.575Z,7.53
2023-05-13T01:16:50.944Z,7.58
2023-05-13T01:19:41.513Z,7.62
2023-05-13T01:22:14.562Z,7.62
2023-05-13T01:24:47.189Z,7.65
2023-05-13T01:27:20.016Z,7.68
2023-05-13T01:29:54.277Z,7.71
2023-05-13T01:32:29.798Z,7.72
2023-05-13T01:35:02.914Z,7.69
2023-05-13T01:37:39.144Z,7.67
2023-05-13T01:40:28.107Z,7.62
2023-05-13T01:43:07.762Z,7.63
2023-05-13T01:45:45.038Z,7.63
2023-05-13T01:48:18.982Z,7.63
2023-05-13T01:50:53.608Z,7.60
2023-05-13T01:53:26.063Z,7.56
2023-05-13T01:55:58.609Z,7.51
2023-05-13T01:58:31.628Z,7.50
2023-05-13T02:01:04.282Z,7.51
2023-05-13T02:03:38.203Z,7.44
2023-05-13T02:06:11.107Z,7.35
2023-05-13T02:08:47.315Z,7.30
2023-05-13T02:11:19.588Z,7.29
2023-05-13T02:13:52.162Z,7.28
2023-05-13T02:16:25.149Z,7.27
2023-05-13T02:18:57.852Z,7.26
2023-05-13T02:21:33.583Z,7.30
2023-05-13T02:24:06.715Z,7.31
2023-05-13T02:26:41.695Z,7.34
2023-05-13T02:29:15.210Z,7.37
2023-05-13T02:31:47.592Z,7.39
2023-05-13T02:34:20.514Z,7.39
2023-05-13T02:36:54.084Z,7.41
2023-05-13T02:39:26.960Z,7.41
2023-05-13T02:42:00.572Z,7.42
2023-05-13T02:44:34.042Z,7.44
2023-05-13T02:47:09.618Z,7.40
2023-05-13T02:49:45.442Z,7.39
2023-05-13T02:52:17.778Z,7.39
2023-05-13T02:54:50.186Z,7.42
2023-05-13T02:57:25.756Z,7.45
2023-05-13T02:59:58.159Z,7.48
2023-05-13T03:02:30.611Z,7.52
2023-05-13T03:05:02.965Z,7.52
2023-05-13T03:07:38.517Z,7.53
2023-05-13T03:10:15.150Z,7.58
2023-05-13T03:12:47.367Z,7.62
2023-05-13T03:15:22.981Z,7.65
2023-05-13T03:17:56.589Z,7.69
2023-05-13T03:20:29.693Z,7.73
2023-05-13T03:23:04.561Z,7.77
2023-05-13T03:25:37.888Z,7.82
2023-05-13T03:28:11.739Z,7.86
2023-05-13T03:30:49.847Z,7.88
2023-05-13T03:33:24.491Z,7.93
2023-05-13T03:35:56.742Z,8.01
2023-05-13T03:38:32.279Z,8.09
2023-05-13T03:41:05.975Z,8.18
2023-05-13T03:43:39.442Z,8.26
2023-05-13T03:46:33.426Z,8.34
2023-05-13T03:49:08.466Z,8.40
2023-05-13T03:51:43.297Z,8.42
2023-05-13T03:54:16.327Z,8.45
2023-05-13T03:56:48.755Z,8.53
2023-05-13T03:59:21.145Z,8.59
2023-05-13T04:01:53.411Z,8.60
2023-05-13T04:04:25.865Z,8.63
2023-05-13T04:06:58.596Z,9.27
2023-05-13T04:09:33.065Z,10.57
2023-05-13T04:12:05.589Z,11.81
2023-05-13T04:14:40.222Z,13.45
2023-05-13T04:17:12.665Z,14.59
2023-05-13T04:19:44.883Z,14.97
2023-05-13T04:22:20.050Z,15.54
2023-05-13T04:24:56.849Z,15.18
2023-05-13T04:27:29.691Z,14.56
2023-05-13T04:30:10.873Z,14.12
2023-05-13T04:32:47.120Z,13.75
2023-05-13T04:35:20.423Z,13.38
2023-05-13T04:37:58.626Z,13.06
2023-05-13T04:40:32.416Z,12.79
2023-05-13T04:43:10.097Z,12.63
2023-05-13T04:45:50.646Z,12.56
2023-05-13T04:48:28.099Z,12.48
2023-05-13T04:51:03.002Z,12.38
2023-05-13T04:53:41.412Z,12.26
2023-05-13T04:56:14.597Z,12.22
2023-05-13T04:58:46.880Z,12.15
2023-05-13T05:01:20.137Z,12.05
2023-05-13T05:03:53.325Z,11.98
2023-05-13T05:06:25.725Z,11.97
2023-05-13T05:08:58.355Z,11.99
2023-05-13T05:11:33.093Z,12.10
2023-05-13T05:14:11.247Z,12.43
2023-05-13T05:16:43.558Z,13.12
2023-05-13T05:19:16.838Z,14.94
2023-05-13T05:21:49.091Z,16.97
2023-05-13T05:24:21.623Z,17.97
2023-05-13T05:26:53.939Z,19.29
2023-05-13T05:29:28.402Z,19.10
2023-05-13T05:32:01.163Z,18.21
2023-05-13T05:34:33.946Z,17.53
2023-05-13T05:37:06.600Z,16.95
2023-05-13T05:39:45.332Z,16.43
2023-05-13T05:42:18.107Z,16.01
2023-05-13T05:44:50.495Z,15.70
2023-05-13T05:47:25.841Z,15.48
2023-05-13T05:49:58.598Z,15.36
2023-05-13T05:52:31.077Z,15.34
2023-05-13T05:55:04.286Z,15.57
2023-05-13T05:57:38.123Z,15.90
2023-05-13T06:00:16.553Z,16.30
2023-05-13T06:02:49.236Z,17.08
2023-05-13T06:05:22.420Z,20.12
2023-05-13T06:07:55.027Z,21.96
2023-05-13T06:10:28.161Z,22.75
2023-05-13T06:13:00.784Z,23.84
2023-05-13T06:15:34.970Z,23.50
2023-05-13T06:18:10.626Z,22.94
2023-05-13T06:20:42.989Z,22.86
2023-05-13T06:23:16.072Z,22.42
2023-05-13T06:25:49.041Z,21.74
2023-05-13T06:28:21.792Z,21.13
2023-05-13T06:30:56.802Z,20.63
2023-05-13T06:33:30.064Z,20.32
2023-05-13T06:36:02.837Z,19.98
2023-05-13T06:38:35.500Z,19.81
2023-05-13T06:41:14.454Z,19.60
2023-05-13T06:43:49.104Z,19.37
2023-05-13T06:46:27.091Z,19.18
2023-05-13T06:49:00.296Z,19.06
2023-05-13T06:51:34.164Z,19.10
2023-05-13T06:54:06.746Z,19.26
2023-05-13T06:56:41.432Z,19.46
2023-05-13T06:59:13.833Z,19.51
2023-05-13T07:01:46.267Z,19.56
2023-05-13T07:04:18.622Z,19.89
2023-05-13T07:06:51.882Z,20.71
2023-05-13T07:09:24.184Z,21.25
2023-05-13T07:11:56.932Z,21.77
2023-05-13T07:14:29.172Z,21.44
2023-05-13T07:17:04.852Z,21.23
2023-05-13T07:19:39.444Z,21.23
2023-05-13T07:22:11.856Z,21.20
2023-05-13T07:24:44.043Z,21.07
2023-05-13T07:27:17.010Z,21.07
2023-05-13T07:29:49.233Z,21.20
2023-05-13T07:32:21.886Z,21.19
2023-05-13T07:34:54.324Z,21.05
2023-05-13T07:37:29.793Z,21.05
2023-05-13T07:40:05.886Z,21.12
2023-05-13T07:42:40.617Z,21.10
2023-05-13T07:45:14.778Z,21.03
2023-05-13T07:47:47.026Z,21.00
2023-05-13T07:50:19.483Z,20.97
2023-05-13T07:52:52.082Z,21.03
2023-05-13T07:55:26.677Z,21.18
2023-05-13T07:57:59.107Z,21.29
2023-05-13T08:00:32.208Z,21.32
2023-05-13T08:03:06.346Z,21.38
2023-05-13T08:05:41.557Z,21.47
2023-05-13T08:08:14.197Z,21.42
2023-05-13T08:10:46.520Z,21.38
2023-05-13T08:13:18.868Z,21.46
2023-05-13T08:15:52.015Z,21.47
2023-05-13T08:18:24.311Z,21.44
2023-05-13T08:20:56.765Z,21.52
2023-05-13T08:23:43.577Z,21.56
2023-05-13T08:26:17.016Z,21.53
2023-05-13T08:28:52.194Z,21.58
2023-05-13T08:31:27.003Z,21.66
2023-05-13T08:33:59.486Z,21.73
2023-05-13T08:36:31.704Z,21.85
2023-05-13T08:39:03.873Z,22.02
2023-05-13T08:41:38.074Z,22.22
2023-05-13T08:44:13.450Z,22.36
2023-05-13T08:46:52.270Z,22.59
2023-05-13T08:49:24.771Z,22.87
2023-05-13T08:51:57.091Z,23.03
2023-05-13T08:54:30.795Z,23.18
2023-05-13T08:57:03.690Z,23.62
2023-05-13T08:59:36.920Z,24.18
2023-05-13T09:02:10.799Z,24.68
2023-05-13T09:04:44.561Z,25.09
2023-05-13T09:07:17.298Z,25.43
2023-05-13T09:09:50.951Z,25.71
2023-05-13T09:12:48.529Z,26.12
2023-05-13T09:15:23.001Z,26.49
2023-05-13T09:18:00.353Z,26.86
2023-05-13T09:20:33.451Z,27.12
2023-05-13T09:23:07.765Z,27.24
2023-05-13T09:25:41.651Z,26.70
2023-05-13T09:28:16.978Z,26.67
2023-05-13T09:30:57.814Z,26.83
2023-05-13T09:33:33.053Z,27.32
2023-05-13T09:36:08.464Z,27.63
2023-05-13T09:38:41.534Z,27.58
2023-05-13T09:41:14.192Z,27.64
2023-05-13T09:43:46.430Z,27.71
2023-05-13T09:46:18.803Z,27.90
2023-05-13T09:48:57.219Z,27.98
2023-05-13T09:51:31.382Z,27.77
2023-05-13T09:54:08.813Z,27.48
2023-05-13T09:56:43.966Z,27.50
2023-05-13T09:59:18.296Z,27.56
2023-05-13T10:01:51.219Z,27.57
2023-05-13T10:04:25.017Z,27.26
2023-05-13T10:06:59.151Z,27.30
2023-05-13T10:09:36.050Z,27.33
2023-05-13T10:12:16.072Z,27.46
2023-05-13T10:14:49.261Z,27.84
2023-05-13T10:17:23.653Z,27.81
2023-05-13T10:19:57.463Z,27.81
2023-05-13T10:22:31.824Z,27.91
2023-05-13T10:25:05.262Z,27.86
2023-05-13T10:27:42.091Z,27.42
2023-05-13T10:30:16.802Z,27.40
2023-05-13T10:32:49.243Z,27.50
2023-05-13T10:35:25.198Z,27.79
2023-05-13T10:38:12.426Z,27.58
2023-05-13T10:41:10.195Z,27.55
2023-05-13T10:43:44.626Z,27.86
2023-05-13T10:46:16.876Z,28.08
2023-05-13T10:48:58.632Z,28.40
2023-05-13T10:51:32.370Z,28.82
2023-05-13T10:54:18.893Z,29.24
2023-05-13T10:56:59.525Z,29.38
2023-05-13T10:59:31.881Z,29.50
2023-05-13T11:02:21.511Z,29.67
2023-05-13T11:05:06.324Z,29.77
2023-05-13T11:07:41.096Z,29.88
2023-05-13T11:13:24.938Z,29.80
2023-05-13T11:15:57.718Z,29.28
2023-05-13T11:18:34.764Z,28.72
2023-05-13T11:21:09.361Z,28.39
2023-05-13T11:23:58.036Z,28.07
2023-05-13T11:26:46.692Z,27.29
2023-05-13T11:29:30.893Z,26.76
2023-05-13T11:32:05.083Z,26.41
2023-05-13T11:34:38.556Z,26.34
2023-05-13T11:37:12.236Z,25.98
2023-05-13T11:39:44.830Z,25.65
2023-05-13T11:42:18.001Z,25.31
2023-05-13T11:44:50.537Z,25.20
2023-05-13T11:47:29.593Z,25.69
2023-05-13T11:50:01.993Z,26.30
2023-05-13T11:52:38.693Z,26.79
2023-05-13T11:55:11.577Z,27.19
2023-05-13T11:57:51.243Z,27.32
2023-05-13T12:00:27.814Z,27.50
2023-05-13T12:03:01.550Z,27.33
2023-05-13T12:05:34.639Z,27.17
2023-05-13T12:08:11.082Z,26.86
2023-05-13T12:10:47.318Z,26.95
2023-05-13T12:13:20.012Z,27.25
2023-05-13T12:15:53.634Z,27.14
2023-05-13T12:18:26.231Z,27.06
2023-05-13T12:20:58.538Z,27.07
2023-05-13T12:23:42.811Z,26.89
2023-05-13T12:26:15.186Z,26.72
2023-05-13T12:28:48.632Z,26.64
2023-05-13T12:31:19.461Z,26.54
2023-05-13T12:33:52.136Z,26.57
2023-05-13T12:36:32.515Z,26.50
2023-05-13T12:39:07.521Z,25.95
2023-05-13T12:41:42.514Z,25.84
2023-05-13T12:44:17.243Z,26.04
2023-05-13T12:46:55.903Z,26.30
2023-05-13T12:49:28.597Z,26.43
2023-05-13T12:52:06.069Z,26.54
2023-05-13T12:54:39.171Z,26.87
2023-05-13T12:57:16.805Z,27.19
2023-05-13T12:59:49.239Z,27.31
2023-05-13T13:02:21.613Z,27.21
2023-05-13T13:04:54.258Z,27.07
2023-05-13T13:07:26.635Z,26.90
2023-05-13T13:09:59.938Z,27.07
2023-05-13T13:12:30.929Z,27.07
2023-05-13T13:15:03.934Z,26.85
2023-05-13T13:17:43.835Z,26.49
2023-05-13T13:20:16.866Z,26.01
2023-05-13T13:22:49.353Z,25.98
2023-05-13T13:25:22.674Z,26.09
2023-05-13T13:27:53.397Z,26.16
2023-05-13T13:30:26.756Z,26.32
2023-05-13T13:32:59.168Z,26.41
2023-05-13T13:35:32.023Z,26.35
2023-05-13T13:38:04.592Z,26.29
2023-05-13T13:40:37.296Z,26.26
2023-05-13T13:43:10.313Z,26.38
2023-05-13T13:45:43.123Z,26.33
2023-05-13T13:48:15.986Z,26.24
2023-05-13T13:50:50.525Z,26.29
2023-05-13T13:53:24.263Z,26.27
2023-05-13T13:55:56.571Z,26.17
2023-05-13T13:58:28.997Z,26.21
2023-05-13T14:01:01.421Z,26.25
2023-05-13T14:03:34.011Z,26.24
2023-05-13T14:06:07.647Z,26.17
2023-05-13T14:08:40.192Z,26.08
2023-05-13T14:11:12.702Z,25.89
2023-05-13T14:13:45.236Z,25.97
2023-05-13T14:16:18.008Z,25.92
2023-05-13T14:18:50.487Z,25.96
2023-05-13T14:21:23.289Z,25.67
2023-05-13T14:23:55.711Z,25.28
2023-05-13T14:26:28.474Z,25.08
2023-05-13T14:29:01.329Z,25.05
2023-05-13T14:31:34.213Z,24.96
2023-05-13T14:34:10.690Z,24.69
2023-05-13T14:36:43.539Z,24.38
2023-05-13T14:39:15.996Z,24.37
2023-05-13T14:41:48.419Z,24.47
2023-05-13T14:44:20.835Z,24.60
2023-05-13T14:46:53.759Z,24.74
2023-05-13T14:49:27.470Z,24.70
2023-05-13T14:52:00.047Z,24.71
2023-05-13T14:54:37.198Z,24.66
2023-05-13T14:57:11.297Z,24.52
2023-05-13T14:59:44.072Z,24.57
2023-05-13T15:02:18.559Z,24.59
2023-05-13T15:04:53.632Z,24.56
2023-05-13T15:07:27.357Z,24.48
2023-05-13T15:10:04.479Z,24.33
2023-05-13T15:12:39.360Z,24.24
2023-05-13T15:15:15.055Z,24.26
2023-05-13T15:17:47.792Z,24.24
2023-05-13T15:20:20.911Z,24.22
2023-05-13T15:22:53.461Z,24.17
2023-05-13T15:25:26.396Z,24.10
2023-05-13T15:28:00.055Z,24.03
2023-05-13T15:30:37.214Z,23.82
2023-05-13T15:33:09.721Z,23.68
2023-05-13T15:35:44.079Z,23.70
2023-05-13T15:38:17.308Z,23.64
2023-05-13T15:40:49.342Z,23.73
2023-05-13T15:43:22.074Z,23.75
2023-05-13T15:45:57.978Z,23.76
2023-05-13T15:48:30.688Z,23.66
2023-05-13T15:51:04.615Z,23.59
2023-05-13T15:53:39.505Z,23.51
2023-05-13T15:56:20.372Z,23.28
2023-05-13T15:58:56.243Z,23.02
2023-05-13T16:01:29.432Z,22.80
2023-05-13T16:04:02.561Z,22.58
2023-05-13T16:06:35.547Z,22.35
2023-05-13T16:09:10.956Z,22.14
2023-05-13T16:11:44.036Z,21.96
2023-05-13T16:14:18.254Z,21.75
2023-05-13T16:16:52.347Z,21.54
2023-05-13T16:19:24.683Z,21.36
2023-05-13T16:21:57.171Z,21.16
2023-05-13T16:24:29.660Z,20.97
2023-05-13T16:27:02.083Z,20.81
2023-05-13T16:29:34.513Z,20.73
2023-05-13T16:32:09.115Z,20.63
2023-05-13T16:34:39.836Z,20.60
2023-05-13T16:37:12.349Z,20.56
2023-05-13T16:39:44.956Z,20.57
2023-05-13T16:42:17.609Z,20.53
2023-05-13T16:44:50.398Z,20.50
2023-05-13T16:47:23.209Z,20.44
2023-05-13T16:49:56.384Z,20.42
2023-05-13T16:52:31.565Z,20.40
2023-05-13T16:55:03.988Z,20.35
2023-05-13T16:57:40.224Z,20.31
2023-05-13T17:00:16.274Z,20.27
2023-05-13T17:02:48.986Z,20.20
2023-05-13T17:05:21.516Z,20.17
2023-05-13T17:07:54.130Z,20.14
2023-05-13T17:10:26.523Z,20.13
2023-05-13T17:12:59.196Z,20.15
2023-05-13T17:15:32.175Z,20.16
2023-05-13T17:18:04.915Z,20.18
2023-05-13T17:20:40.904Z,20.21
2023-05-13T17:23:13.589Z,20.21
2023-05-13T17:25:46.057Z,20.11
2023-05-13T17:28:18.631Z,19.99
2023-05-13T17:30:51.249Z,19.78
2023-05-13T17:33:24.514Z,19.56
2023-05-13T17:35:57.117Z,19.32
2023-05-13T17:38:29.669Z,19.12
2023-05-13T17:41:02.063Z,18.98
2023-05-13T17:43:34.443Z,18.81
2023-05-13T17:46:07.502Z,18.60
2023-05-13T17:48:40.148Z,18.43
2023-05-13T17:51:13.795Z,18.26
2023-05-13T17:53:46.411Z,17.86
2023-05-13T17:56:19.148Z,17.45
2023-05-13T17:58:51.549Z,17.17
2023-05-13T18:01:23.874Z,16.98
2023-05-13T18:03:56.579Z,16.82
2023-05-13T18:06:29.160Z,16.67
2023-05-13T18:09:02.739Z,16.52
2023-05-13T18:11:35.860Z,16.36
2023-05-13T18:14:09.102Z,16.20
2023-05-13T18:16:44.148Z,16.02
2023-05-13T18:19:16.796Z,15.82
2023-05-13T18:21:49.453Z,15.65
2023-05-13T18:24:22.279Z,15.52
2023-05-13T18:26:57.122Z,15.39
2023-05-13T18:29:29.573Z,15.24
2023-05-13T18:32:05.153Z,15.06
2023-05-13T18:34:39.946Z,14.90
2023-05-13T18:37:13.206Z,14.75
2023-05-13T18:39:46.193Z,14.57
2023-05-13T18:42:19.272Z,14.43
2023-05-13T18:44:52.455Z,14.29
2023-05-13T18:47:25.071Z,14.19
2023-05-13T18:49:57.514Z,14.04
2023-05-13T18:52:29.941Z,13.92
2023-05-13T18:55:03.799Z,13.79
2023-05-13T18:57:37.555Z,13.71
2023-05-13T19:00:12.317Z,13.65
2023-05-13T19:02:45.118Z,13.58
2023-05-13T19:05:20.317Z,13.50
2023-05-13T19:07:53.226Z,13.46
2023-05-13T19:10:25.885Z,13.39
2023-05-13T19:12:58.248Z,13.32
2023-05-13T19:15:30.801Z,13.24
2023-05-13T19:18:03.598Z,13.15
2023-05-13T19:20:35.964Z,13.05
2023-05-13T19:23:09.119Z,12.95
2023-05-13T19:25:42.715Z,12.83
2023-05-13T19:28:16.420Z,12.74
2023-05-13T19:30:49.226Z,12.64
2023-05-13T19:33:21.548Z,12.56
2023-05-13T19:35:53.828Z,12.48
2023-05-13T19:38:26.354Z,12.38
2023-05-13T19:41:01.989Z,12.27
2023-05-13T19:43:34.737Z,12.17
2023-05-13T19:46:07.783Z,12.07
2023-05-13T19:48:41.592Z,11.98
2023-05-13T19:51:14.017Z,11.93
2023-05-13T19:53:46.341Z,11.85
2023-05-13T19:56:19.057Z,11.82
2023-05-13T19:58:53.516Z,11.80
2023-05-13T20:01:27.211Z,11.74
2023-05-13T20:04:00.545Z,11.71
2023-05-13T20:06:33.827Z,11.71
2023-05-13T20:09:06.804Z,11.65
2023-05-13T20:11:41.391Z,11.61
2023-05-13T20:14:13.948Z,11.61
2023-05-13T20:16:46.313Z,11.57
2023-05-13T20:19:18.796Z,11.52
2023-05-13T20:21:53.578Z,11.49
2023-05-13T20:24:25.815Z,11.49
2023-05-13T20:27:00.433Z,11.46
2023-05-13T20:29:38.887Z,11.39
2023-05-13T20:32:11.765Z,11.34
2023-05-13T20:34:44.230Z,11.28
2023-05-13T20:37:17.113Z,11.25
2023-05-13T20:39:49.678Z,11.20
2023-05-13T20:42:22.919Z,11.17
2023-05-13T20:44:55.359Z,11.10
2023-05-13T20:47:27.868Z,11.06
2023-05-13T20:50:00.658Z,11.04
2023-05-13T20:52:35.917Z,11.02
2023-05-13T20:55:10.902Z,10.97
2023-05-13T20:57:45.516Z,10.92
2023-05-13T21:00:18.937Z,10.87
2023-05-13T21:02:52.124Z,10.79
2023-05-13T21:05:24.872Z,10.75
2023-05-13T21:07:57.378Z,10.70
2023-05-13T21:10:29.978Z,10.66
2023-05-13T21:13:02.762Z,10.60
2023-05-13T21:15:35.929Z,10.57
2023-05-13T21:18:09.172Z,10.53
2023-05-13T21:20:46.185Z,10.47
2023-05-13T21:23:20.454Z,10.41
2023-05-13T21:25:52.919Z,10.38
2023-05-13T21:28:25.264Z,10.36
2023-05-13T21:30:57.587Z,10.33
2023-05-13T21:33:30.417Z,10.28
2023-05-13T21:36:02.758Z,10.25
2023-05-13T21:38:34.732Z,10.24
2023-05-13T21:41:07.667Z,10.23
2023-05-13T21:43:40.326Z,10.20
2023-05-13T21:46:14.180Z,10.16
2023-05-13T21:48:48.400Z,10.12
2023-05-13T21:51:21.125Z,10.11
2023-05-13T21:53:53.482Z,10.11
2023-05-13T21:56:25.868Z,10.08
2023-05-13T21:58:58.122Z,10.01
2023-05-13T22:01:30.410Z,9.96
2023-05-13T22:04:02.728Z,9.92
2023-05-13T22:06:35.037Z,9.82
2023-05-13T22:09:08.019Z,9.74
2023-05-13T22:11:40.257Z,9.72
2023-05-13T22:14:13.198Z,9.70
2023-05-13T22:16:51.894Z,9.70
2023-05-13T22:19:29.320Z,9.63
2023-05-13T22:22:01.652Z,9.55
2023-05-13T22:24:33.943Z,9.53
2023-05-13T22:27:07.016Z,9.51
2023-05-13T22:29:41.437Z,9.44
2023-05-13T22:32:13.978Z,9.41
2023-05-13T22:34:46.632Z,9.41
2023-05-13T22:37:19.133Z,9.42
2023-05-13T22:39:51.524Z,9.41
2023-05-13T22:42:23.878Z,9.40
2023-05-13T22:44:56.338Z,9.38
2023-05-13T22:47:28.706Z,9.33
2023-05-13T22:50:01.083Z,9.28
2023-05-13T22:52:33.964Z,9.19
2023-05-13T22:55:06.914Z,9.14
2023-05-13T22:57:40.688Z,9.10
2023-05-13T23:00:18.298Z,9.07
2023-05-13T23:02:50.767Z,9.05
2023-05-13T23:05:23.265Z,9.03
2023-05-13T23:07:55.741Z,9.00
2023-05-13T23:10:28.116Z,9.00
2023-05-13T23:13:00.625Z,8.99
2023-05-13T23:15:32.858Z,8.95
2023-05-13T23:18:05.349Z,8.95
2023-05-13T23:20:38.368Z,8.92
2023-05-13T23:23:10.742Z,8.89
2023-05-13T23:25:45.825Z,8.84
2023-05-13T23:28:21.079Z,8.78
2023-05-13T23:30:58.227Z,8.73
2023-05-13T23:33:30.529Z,8.69
2023-05-13T23:36:03.036Z,8.64
2023-05-13T23:38:35.883Z,8.62
2023-05-13T23:41:10.990Z,8.59
2023-05-13T23:43:43.632Z,8.56
2023-05-13T23:46:19.463Z,8.57
2023-05-13T23:48:54.913Z,8.57
2023-05-13T23:51:27.332Z,8.53
2023-05-13T23:54:00.098Z,8.49
2023-05-13T23:56:32.384Z,8.46
2023-05-13T23:59:04.613Z,8.48
